sensor_id;sensor_type;location;lat;lon;timestamp;temperature;humidity
15690;DHT22;7945;48.816;11.506;2024-01-15T00:00:56;-1.30;99.90
15690;DHT22;7945;48.816;11.506;2024-01-15T00:03:23;-1.30;99.90
15690;DHT22;7945;48.816;11.506;2024-01-15T00:05:49;-1.30;99.90
15690;DHT22;7945;48.816;11.506;2024-01-15T00:08:17;-1.30;99.90
15690;DHT22;7945;48.816;11.506;2024-01-15T00:10:44;-1.30;99.90
15690;DHT22;7945;48.816;11.506;2024-01-15T00:13:11;-1.30;99.90
15690;DHT22;7945;48.816;11.506;2024-01-15T00:15:38;-1.30;99.90
15690;DHT22;7945;48.816;11.506;2024-01-15T00:18:05;-1.30;99.90
15690;DHT22;7945;48.816;11.506;2024-01-15T00:20:32;-1.30;99.90
15690;DHT22;7945;48.816;11.506;2024-01-15T00:22:59;-1.40;99.90
15690;DHT22;7945;48.816;11.506;2024-01-15T00:25:27;-1.40;99.90
15690;DHT22;7945;48.816;11.506;2024-01-15T00:27:53;-1.40;99.90
15690;DHT22;7945;48.816;11.506;2024-01-15T00:30:20;-1.40;99.90
15690;DHT22;7945;48.816;11.506;2024-01-15T00:32:47;-1.40;99.90
15690;DHT22;7945;48.816;11.506;2024-01-15T00:35:14;-1.40;99.90
15690;DHT22;7945;48.816;11.506;2024-01-15T00:37:41;-1.40;99.90
15690;DHT22;7945;48.816;11.506;2024-01-15T00:40:08;-1.40;99.90
15690;DHT22;7945;48.816;11.506;2024-01-15T00:42:37;-1.40;99.90
15690;DHT22;7945;48.816;11.506;2024-01-15T00:45:04;-1.40;99.90
15690;DHT22;7945;48.816;11.506;2024-01-15T00:47:33;-1.40;99.90
15690;DHT22;7945;48.816;11.506;2024-01-15T00:50:00;-1.30;99.90
15690;DHT22;7945;48.816;11.506;2024-01-15T00:52:26;-1.30;99.90
15690;DHT22;7945;48.816;11.506;2024-01-15T00:54:53;-1.20;99.90
15690;DHT22;7945;48.816;11.506;2024-01-15T00:57:20;-1.20;99.90
15690;DHT22;7945;48.816;11.506;2024-01-15T00:59:48;-1.20;99.90
15690;DHT22;7945;48.816;11.506;2024-01-15T01:02:15;-1.20;99.90
15690;DHT22;7945;48.816;11.506;2024-01-15T01:04:41;-1.10;99.90
15690;DHT22;7945;48.816;11.506;2024-01-15T01:07:08;-1.10;99.90
15690;DHT22;7945;48.816;11.506;2024-01-15T01:09:35;-1.10;99.90
15690;DHT22;7945;48.816;11.506;2024-01-15T01:12:02;-1.10;99.90
15690;DHT22;7945;48.816;11.506;2024-01-15T01:14:29;-1.20;99.90
15690;DHT22;7945;48.816;11.506;2024-01-15T01:16:57;-1.20;99.90
15690;DHT22;7945;48.816;11.506;2024-01-15T01:19:23;-1.20;99.90
15690;DHT22;7945;48.816;11.506;2024-01-15T01:21:51;-1.20;99.90
15690;DHT22;7945;48.816;11.506;2024-01-15T01:24:18;-1.20;99.90
15690;DHT22;7945;48.816;11.506;2024-01-15T01:26:45;-1.30;99.90
15690;DHT22;7945;48.816;11.506;2024-01-15T01:29:12;-1.30;99.90
15690;DHT22;7945;48.816;11.506;2024-01-15T01:31:42;-1.30;99.90
15690;DHT22;7945;48.816;11.506;2024-01-15T01:34:13;-1.30;99.90
15690;DHT22;7945;48.816;11.506;2024-01-15T01:36:40;-1.30;99.90
15690;DHT22;7945;48.816;11.506;2024-01-15T01:39:07;-1.20;99.90
15690;DHT22;7945;48.816;11.506;2024-01-15T01:41:34;-1.30;99.90
15690;DHT22;7945;48.816;11.506;2024-01-15T01:44:01;-1.20;99.90
15690;DHT22;7945;48.816;11.506;2024-01-15T01:46:28;-1.20;99.90
15690;DHT22;7945;48.816;11.506;2024-01-15T01:48:55;-1.20;99.90
15690;DHT22;7945;48.816;11.506;2024-01-15T01:51:24;-1.20;99.90
15690;DHT22;7945;48.816;11.506;2024-01-15T01:53:51;-1.10;99.90
15690;DHT22;7945;48.816;11.506;2024-01-15T01:56:18;-1.10;99.90
15690;DHT22;7945;48.816;11.506;2024-01-15T01:58:46;-1.10;99.90
15690;DHT22;7945;48.816;11.506;2024-01-15T02:01:15;-1.10;99.90
15690;DHT22;7945;48.816;11.506;2024-01-15T02:03:43;-1.20;99.90
15690;DHT22;7945;48.816;11.506;2024-01-15T02:06:10;-1.20;99.90
15690;DHT22;7945;48.816;11.506;2024-01-15T02:08:38;-1.20;99.90
15690;DHT22;7945;48.816;11.506;2024-01-15T02:11:04;-1.20;99.90
15690;DHT22;7945;48.816;11.506;2024-01-15T02:13:31;-1.20;99.90
15690;DHT22;7945;48.816;11.506;2024-01-15T02:15:58;-1.20;99.90
15690;DHT22;7945;48.816;11.506;2024-01-15T02:18:25;-1.30;99.90
15690;DHT22;7945;48.816;11.506;2024-01-15T02:20:51;-1.30;99.90
15690;DHT22;7945;48.816;11.506;2024-01-15T02:23:19;-1.30;99.90
15690;DHT22;7945;48.816;11.506;2024-01-15T02:25:47;-1.30;99.90
15690;DHT22;7945;48.816;11.506;2024-01-15T02:28:14;-1.30;99.90
15690;DHT22;7945;48.816;11.506;2024-01-15T02:30:42;-1.30;99.90
15690;DHT22;7945;48.816;11.506;2024-01-15T02:33:10;-1.20;99.90
15690;DHT22;7945;48.816;11.506;2024-01-15T02:35:37;-1.20;99.90
15690;DHT22;7945;48.816;11.506;2024-01-15T02:38:04;-1.20;99.90
15690;DHT22;7945;48.816;11.506;2024-01-15T02:40:33;-1.20;99.90
15690;DHT22;7945;48.816;11.506;2024-01-15T02:43:00;-1.20;99.90
15690;DHT22;7945;48.816;11.506;2024-01-15T02:45:27;-1.10;99.90
15690;DHT22;7945;48.816;11.506;2024-01-15T02:47:53;-1.10;99.90
15690;DHT22;7945;48.816;11.506;2024-01-15T02:50:20;-1.00;99.90
15690;DHT22;7945;48.816;11.506;2024-01-15T02:52:47;-1.00;99.90
15690;DHT22;7945;48.816;11.506;2024-01-15T02:55:14;-1.00;99.90
15690;DHT22;7945;48.816;11.506;2024-01-15T02:57:42;-0.90;99.90
15690;DHT22;7945;48.816;11.506;2024-01-15T03:00:10;-0.90;99.90
15690;DHT22;7945;48.816;11.506;2024-01-15T03:02:37;-0.90;99.90
15690;DHT22;7945;48.816;11.506;2024-01-15T03:05:06;-0.80;99.90
15690;DHT22;7945;48.816;11.506;2024-01-15T03:07:33;-0.90;99.90
15690;DHT22;7945;48.816;11.506;2024-01-15T03:10:00;-0.90;99.90
15690;DHT22;7945;48.816;11.506;2024-01-15T03:12:27;-0.90;99.90
15690;DHT22;7945;48.816;11.506;2024-01-15T03:14:55;-0.80;99.90
15690;DHT22;7945;48.816;11.506;2024-01-15T03:17:21;-0.80;99.90
15690;DHT22;7945;48.816;11.506;2024-01-15T03:19:48;-0.80;99.90
15690;DHT22;7945;48.816;11.506;2024-01-15T03:22:16;-0.70;99.90
15690;DHT22;7945;48.816;11.506;2024-01-15T03:24:43;-0.80;99.90
15690;DHT22;7945;48.816;11.506;2024-01-15T03:27:10;-0.80;99.90
15690;DHT22;7945;48.816;11.506;2024-01-15T03:29:36;-0.80;99.90
15690;DHT22;7945;48.816;11.506;2024-01-15T03:32:05;-0.80;99.90
15690;DHT22;7945;48.816;11.506;2024-01-15T03:34:32;-0.80;99.90
15690;DHT22;7945;48.816;11.506;2024-01-15T03:36:58;-0.90;99.90
15690;DHT22;7945;48.816;11.506;2024-01-15T03:39:25;-0.90;99.90
15690;DHT22;7945;48.816;11.506;2024-01-15T03:41:52;-0.90;99.90
15690;DHT22;7945;48.816;11.506;2024-01-15T03:44:19;-0.90;99.90
15690;DHT22;7945;48.816;11.506;2024-01-15T03:46:46;-0.90;99.90
15690;DHT22;7945;48.816;11.506;2024-01-15T03:49:14;-0.90;99.90
15690;DHT22;7945;48.816;11.506;2024-01-15T03:51:40;-0.90;99.90
15690;DHT22;7945;48.816;11.506;2024-01-15T03:54:07;-0.90;99.90
15690;DHT22;7945;48.816;11.506;2024-01-15T03:56:34;-0.90;99.90
15690;DHT22;7945;48.816;11.506;2024-01-15T03:59:01;-0.90;99.90
15690;DHT22;7945;48.816;11.506;2024-01-15T04:01:28;-0.90;99.90
15690;DHT22;7945;48.816;11.506;2024-01-15T04:03:55;-0.90;99.90
15690;DHT22;7945;48.816;11.506;2024-01-15T04:06:23;-0.90;99.90
15690;DHT22;7945;48.816;11.506;2024-01-15T04:08:50;-0.90;99.90
15690;DHT22;7945;48.816;11.506;2024-01-15T04:11:17;-0.90;99.90
15690;DHT22;7945;48.816;11.506;2024-01-15T04:13:43;-0.90;99.90
15690;DHT22;7945;48.816;11.506;2024-01-15T04:16:10;-0.90;99.90
15690;DHT22;7945;48.816;11.506;2024-01-15T04:18:37;-0.80;99.90
15690;DHT22;7945;48.816;11.506;2024-01-15T04:21:04;-0.80;99.90
15690;DHT22;7945;48.816;11.506;2024-01-15T04:23:33;-0.80;99.90
15690;DHT22;7945;48.816;11.506;2024-01-15T04:25:59;-0.80;99.90
15690;DHT22;7945;48.816;11.506;2024-01-15T04:28:26;-0.80;99.90
15690;DHT22;7945;48.816;11.506;2024-01-15T04:30:53;-0.80;99.90
15690;DHT22;7945;48.816;11.506;2024-01-15T04:33:20;-0.70;99.90
15690;DHT22;7945;48.816;11.506;2024-01-15T04:35:46;-0.70;99.90
15690;DHT22;7945;48.816;11.506;2024-01-15T04:38:13;-0.70;99.90
15690;DHT22;7945;48.816;11.506;2024-01-15T04:40:41;-0.70;99.90
15690;DHT22;7945;48.816;11.506;2024-01-15T04:43:08;-0.70;99.90
15690;DHT22;7945;48.816;11.506;2024-01-15T04:45:35;-0.60;99.90
15690;DHT22;7945;48.816;11.506;2024-01-15T04:48:02;-0.70;99.90
15690;DHT22;7945;48.816;11.506;2024-01-15T04:50:28;-0.60;99.90
15690;DHT22;7945;48.816;11.506;2024-01-15T04:52:55;-0.60;99.90
15690;DHT22;7945;48.816;11.506;2024-01-15T04:55:22;-0.60;99.90
15690;DHT22;7945;48.816;11.506;2024-01-15T04:57:50;-0.60;99.90
15690;DHT22;7945;48.816;11.506;2024-01-15T05:00:17;-0.60;99.90
15690;DHT22;7945;48.816;11.506;2024-01-15T05:02:45;-0.60;99.90
15690;DHT22;7945;48.816;11.506;2024-01-15T05:05:11;-0.60;99.90
15690;DHT22;7945;48.816;11.506;2024-01-15T05:07:39;-0.60;99.90
15690;DHT22;7945;48.816;11.506;2024-01-15T05:10:06;-0.60;99.90
15690;DHT22;7945;48.816;11.506;2024-01-15T05:12:34;-0.50;99.90
15690;DHT22;7945;48.816;11.506;2024-01-15T05:15:02;-0.50;99.90
15690;DHT22;7945;48.816;11.506;2024-01-15T05:17:29;-0.50;99.90
15690;DHT22;7945;48.816;11.506;2024-01-15T05:19:56;-0.50;99.90
15690;DHT22;7945;48.816;11.506;2024-01-15T05:22:23;-0.40;99.90
15690;DHT22;7945;48.816;11.506;2024-01-15T05:24:50;-0.50;99.90
15690;DHT22;7945;48.816;11.506;2024-01-15T05:27:17;-0.40;99.90
15690;DHT22;7945;48.816;11.506;2024-01-15T05:29:43;-0.40;99.90
15690;DHT22;7945;48.816;11.506;2024-01-15T05:32:12;-0.40;99.90
15690;DHT22;7945;48.816;11.506;2024-01-15T05:34:38;-0.40;99.90
15690;DHT22;7945;48.816;11.506;2024-01-15T05:37:05;-0.40;99.90
15690;DHT22;7945;48.816;11.506;2024-01-15T05:39:32;-0.40;99.90
15690;DHT22;7945;48.816;11.506;2024-01-15T05:41:59;-0.40;99.90
15690;DHT22;7945;48.816;11.506;2024-01-15T05:44:26;-0.20;99.90
15690;DHT22;7945;48.816;11.506;2024-01-15T05:46:53;0.00;99.90
15690;DHT22;7945;48.816;11.506;2024-01-15T05:49:21;-0.10;99.90
15690;DHT22;7945;48.816;11.506;2024-01-15T05:51:48;-0.10;99.90
15690;DHT22;7945;48.816;11.506;2024-01-15T05:54:15;-0.20;99.90
15690;DHT22;7945;48.816;11.506;2024-01-15T05:56:41;-0.20;99.90
15690;DHT22;7945;48.816;11.506;2024-01-15T05:59:08;-0.20;99.90
15690;DHT22;7945;48.816;11.506;2024-01-15T06:01:35;-0.20;99.90
15690;DHT22;7945;48.816;11.506;2024-01-15T06:04:02;-0.20;99.90
15690;DHT22;7945;48.816;11.506;2024-01-15T06:06:30;-0.20;99.90
15690;DHT22;7945;48.816;11.506;2024-01-15T06:08:57;-0.20;99.90
15690;DHT22;7945;48.816;11.506;2024-01-15T06:11:30;-0.20;99.90
15690;DHT22;7945;48.816;11.506;2024-01-15T06:16:13;0.10;99.90
15690;DHT22;7945;48.816;11.506;2024-01-15T06:18:42;0.20;99.90
15690;DHT22;7945;48.816;11.506;2024-01-15T06:21:08;0.20;99.90
15690;DHT22;7945;48.816;11.506;2024-01-15T06:23:36;0.10;99.90
15690;DHT22;7945;48.816;11.506;2024-01-15T06:26:03;0.00;99.90
15690;DHT22;7945;48.816;11.506;2024-01-15T06:28:30;0.00;99.90
15690;DHT22;7945;48.816;11.506;2024-01-15T06:30:57;0.00;99.90
15690;DHT22;7945;48.816;11.506;2024-01-15T06:33:25;0.00;99.90
15690;DHT22;7945;48.816;11.506;2024-01-15T06:35:52;0.00;99.90
15690;DHT22;7945;48.816;11.506;2024-01-15T06:38:19;0.00;99.90
15690;DHT22;7945;48.816;11.506;2024-01-15T06:40:46;0.00;99.90
15690;DHT22;7945;48.816;11.506;2024-01-15T06:43:14;0.00;99.90
15690;DHT22;7945;48.816;11.506;2024-01-15T06:45:41;-0.10;99.90
15690;DHT22;7945;48.816;11.506;2024-01-15T06:48:07;-0.10;99.90
15690;DHT22;7945;48.816;11.506;2024-01-15T06:50:35;-0.10;99.90
15690;DHT22;7945;48.816;11.506;2024-01-15T06:53:02;-0.10;99.90
15690;DHT22;7945;48.816;11.506;2024-01-15T06:55:29;0.00;99.90
15690;DHT22;7945;48.816;11.506;2024-01-15T07:00:23;0.00;99.90
15690;DHT22;7945;48.816;11.506;2024-01-15T07:05:17;0.00;99.90
15690;DHT22;7945;48.816;11.506;2024-01-15T07:07:45;-0.10;99.90
15690;DHT22;7945;48.816;11.506;2024-01-15T07:10:13;-0.10;99.90
15690;DHT22;7945;48.816;11.506;2024-01-15T07:12:41;-0.10;99.90
15690;DHT22;7945;48.816;11.506;2024-01-15T07:15:09;-0.10;99.90
15690;DHT22;7945;48.816;11.506;2024-01-15T07:17:36;-0.10;99.90
15690;DHT22;7945;48.816;11.506;2024-01-15T07:20:06;-0.10;99.90
15690;DHT22;7945;48.816;11.506;2024-01-15T07:22:33;-0.10;99.90
15690;DHT22;7945;48.816;11.506;2024-01-15T07:25:01;0.00;99.90
15690;DHT22;7945;48.816;11.506;2024-01-15T07:27:30;0.00;99.90
15690;DHT22;7945;48.816;11.506;2024-01-15T07:29:57;0.00;99.90
15690;DHT22;7945;48.816;11.506;2024-01-15T07:32:24;0.00;99.90
15690;DHT22;7945;48.816;11.506;2024-01-15T07:34:51;0.10;99.90
15690;DHT22;7945;48.816;11.506;2024-01-15T07:37:18;0.10;99.90
15690;DHT22;7945;48.816;11.506;2024-01-15T07:39:44;0.10;99.90
15690;DHT22;7945;48.816;11.506;2024-01-15T07:42:12;0.10;99.90
15690;DHT22;7945;48.816;11.506;2024-01-15T07:44:39;0.10;99.90
15690;DHT22;7945;48.816;11.506;2024-01-15T07:47:06;0.20;99.90
15690;DHT22;7945;48.816;11.506;2024-01-15T07:49:34;0.20;99.90
15690;DHT22;7945;48.816;11.506;2024-01-15T07:52:01;0.20;99.90
15690;DHT22;7945;48.816;11.506;2024-01-15T07:54:28;0.20;99.90
15690;DHT22;7945;48.816;11.506;2024-01-15T07:56:55;0.20;99.90
15690;DHT22;7945;48.816;11.506;2024-01-15T07:59:24;0.30;99.90
15690;DHT22;7945;48.816;11.506;2024-01-15T08:01:52;0.30;99.90
15690;DHT22;7945;48.816;11.506;2024-01-15T08:04:19;0.30;99.90
15690;DHT22;7945;48.816;11.506;2024-01-15T08:06:46;0.40;99.90
15690;DHT22;7945;48.816;11.506;2024-01-15T08:09:13;0.30;99.90
15690;DHT22;7945;48.816;11.506;2024-01-15T08:11:40;0.40;99.90
15690;DHT22;7945;48.816;11.506;2024-01-15T08:14:08;0.40;99.90
15690;DHT22;7945;48.816;11.506;2024-01-15T08:16:36;0.40;99.90
15690;DHT22;7945;48.816;11.506;2024-01-15T08:19:03;0.40;99.90
15690;DHT22;7945;48.816;11.506;2024-01-15T08:21:30;0.40;99.90
15690;DHT22;7945;48.816;11.506;2024-01-15T08:23:57;0.40;99.90
15690;DHT22;7945;48.816;11.506;2024-01-15T08:26:24;0.50;99.90
15690;DHT22;7945;48.816;11.506;2024-01-15T08:28:51;0.50;99.90
15690;DHT22;7945;48.816;11.506;2024-01-15T08:31:18;0.60;99.90
15690;DHT22;7945;48.816;11.506;2024-01-15T08:33:46;0.60;99.90
15690;DHT22;7945;48.816;11.506;2024-01-15T08:36:13;0.60;99.90
15690;DHT22;7945;48.816;11.506;2024-01-15T08:38:40;0.60;99.90
15690;DHT22;7945;48.816;11.506;2024-01-15T08:41:06;0.60;99.90
15690;DHT22;7945;48.816;11.506;2024-01-15T08:43:33;0.70;99.90
15690;DHT22;7945;48.816;11.506;2024-01-15T08:46:00;0.70;99.90
15690;DHT22;7945;48.816;11.506;2024-01-15T08:48:27;0.70;99.90
15690;DHT22;7945;48.816;11.506;2024-01-15T08:50:55;0.70;99.90
15690;DHT22;7945;48.816;11.506;2024-01-15T08:53:22;0.70;99.90
15690;DHT22;7945;48.816;11.506;2024-01-15T08:55:49;0.70;99.90
15690;DHT22;7945;48.816;11.506;2024-01-15T08:58:15;0.80;99.90
15690;DHT22;7945;48.816;11.506;2024-01-15T09:00:42;0.80;99.90
15690;DHT22;7945;48.816;11.506;2024-01-15T09:03:08;0.80;99.90
15690;DHT22;7945;48.816;11.506;2024-01-15T09:05:35;0.80;99.90
15690;DHT22;7945;48.816;11.506;2024-01-15T09:08:04;0.90;99.90
15690;DHT22;7945;48.816;11.506;2024-01-15T09:10:31;0.90;99.90
15690;DHT22;7945;48.816;11.506;2024-01-15T09:12:58;0.90;99.90
15690;DHT22;7945;48.816;11.506;2024-01-15T09:15:25;0.90;99.90
15690;DHT22;7945;48.816;11.506;2024-01-15T09:17:53;1.00;99.90
15690;DHT22;7945;48.816;11.506;2024-01-15T09:20:19;1.00;99.90
15690;DHT22;7945;48.816;11.506;2024-01-15T09:22:46;1.00;99.90
15690;DHT22;7945;48.816;11.506;2024-01-15T09:25:14;1.00;99.90
15690;DHT22;7945;48.816;11.506;2024-01-15T09:27:41;1.10;99.90
15690;DHT22;7945;48.816;11.506;2024-01-15T09:30:09;1.10;99.90
15690;DHT22;7945;48.816;11.506;2024-01-15T09:32:36;1.10;99.90
15690;DHT22;7945;48.816;11.506;2024-01-15T09:35:04;1.10;99.90
15690;DHT22;7945;48.816;11.506;2024-01-15T09:37:31;1.10;99.90
15690;DHT22;7945;48.816;11.506;2024-01-15T09:39:58;1.10;99.90
15690;DHT22;7945;48.816;11.506;2024-01-15T09:42:27;1.10;99.90
15690;DHT22;7945;48.816;11.506;2024-01-15T09:44:55;1.20;99.90
15690;DHT22;7945;48.816;11.506;2024-01-15T09:47:22;1.20;99.90
15690;DHT22;7945;48.816;11.506;2024-01-15T09:49:50;1.20;99.90
15690;DHT22;7945;48.816;11.506;2024-01-15T09:52:19;1.20;99.90
15690;DHT22;7945;48.816;11.506;2024-01-15T09:54:46;1.30;99.90
15690;DHT22;7945;48.816;11.506;2024-01-15T09:57:13;1.30;99.90
15690;DHT22;7945;48.816;11.506;2024-01-15T09:59:43;1.30;99.90
15690;DHT22;7945;48.816;11.506;2024-01-15T10:02:12;1.30;99.90
15690;DHT22;7945;48.816;11.506;2024-01-15T10:04:41;1.30;99.90
15690;DHT22;7945;48.816;11.506;2024-01-15T10:07:09;1.30;99.90
15690;DHT22;7945;48.816;11.506;2024-01-15T10:09:36;1.30;99.90
15690;DHT22;7945;48.816;11.506;2024-01-15T10:12:04;1.40;99.90
15690;DHT22;7945;48.816;11.506;2024-01-15T10:14:31;1.40;99.90
15690;DHT22;7945;48.816;11.506;2024-01-15T10:16:59;1.40;99.90
15690;DHT22;7945;48.816;11.506;2024-01-15T10:19:26;1.40;99.90
15690;DHT22;7945;48.816;11.506;2024-01-15T10:21:53;1.40;99.90
15690;DHT22;7945;48.816;11.506;2024-01-15T10:24:19;1.50;99.90
15690;DHT22;7945;48.816;11.506;2024-01-15T10:26:46;1.50;99.90
15690;DHT22;7945;48.816;11.506;2024-01-15T10:29:15;1.50;99.90
15690;DHT22;7945;48.816;11.506;2024-01-15T10:31:41;1.60;99.90
15690;DHT22;7945;48.816;11.506;2024-01-15T10:34:13;1.60;99.90
15690;DHT22;7945;48.816;11.506;2024-01-15T10:36:41;1.70;99.90
15690;DHT22;7945;48.816;11.506;2024-01-15T10:39:13;1.70;99.90
15690;DHT22;7945;48.816;11.506;2024-01-15T10:41:40;1.70;99.90
15690;DHT22;7945;48.816;11.506;2024-01-15T10:44:07;1.70;99.90
15690;DHT22;7945;48.816;11.506;2024-01-15T10:46:34;1.70;99.90
15690;DHT22;7945;48.816;11.506;2024-01-15T10:49:01;1.70;99.90
15690;DHT22;7945;48.816;11.506;2024-01-15T10:51:29;1.80;99.90
15690;DHT22;7945;48.816;11.506;2024-01-15T10:53:57;1.80;99.90
15690;DHT22;7945;48.816;11.506;2024-01-15T10:56:25;1.80;99.90
15690;DHT22;7945;48.816;11.506;2024-01-15T10:58:54;1.80;99.90
15690;DHT22;7945;48.816;11.506;2024-01-15T11:01:22;1.80;99.90
15690;DHT22;7945;48.816;11.506;2024-01-15T11:03:49;1.80;99.90
15690;DHT22;7945;48.816;11.506;2024-01-15T11:06:16;1.80;99.90
15690;DHT22;7945;48.816;11.506;2024-01-15T11:08:47;1.90;99.90
15690;DHT22;7945;48.816;11.506;2024-01-15T11:11:15;1.80;99.90
15690;DHT22;7945;48.816;11.506;2024-01-15T11:13:42;1.80;99.90
15690;DHT22;7945;48.816;11.506;2024-01-15T11:16:11;1.90;99.90
15690;DHT22;7945;48.816;11.506;2024-01-15T11:18:40;1.90;99.90
15690;DHT22;7945;48.816;11.506;2024-01-15T11:21:28;1.90;99.90
15690;DHT22;7945;48.816;11.506;2024-01-15T11:23:57;1.90;99.90
15690;DHT22;7945;48.816;11.506;2024-01-15T11:26:32;3.40;99.90
15690;DHT22;7945;48.816;11.506;2024-01-15T11:29:00;1.90;99.90
15690;DHT22;7945;48.816;11.506;2024-01-15T11:31:29;2.00;99.90
15690;DHT22;7945;48.816;11.506;2024-01-15T11:33:56;2.00;99.90
15690;DHT22;7945;48.816;11.506;2024-01-15T11:37:00;2.10;99.90
15690;DHT22;7945;48.816;11.506;2024-01-15T11:39:41;2.10;99.90
15690;DHT22;7945;48.816;11.506;2024-01-15T11:42:10;2.10;99.60
15690;DHT22;7945;48.816;11.506;2024-01-15T11:44:37;2.00;99.80
15690;DHT22;7945;48.816;11.506;2024-01-15T11:47:05;2.00;99.90
15690;DHT22;7945;48.816;11.506;2024-01-15T11:50:01;2.10;99.90
15690;DHT22;7945;48.816;11.506;2024-01-15T11:52:33;2.10;99.90
15690;DHT22;7945;48.816;11.506;2024-01-15T11:55:11;2.10;99.90
15690;DHT22;7945;48.816;11.506;2024-01-15T11:57:45;2.10;99.90
15690;DHT22;7945;48.816;11.506;2024-01-15T12:00:13;2.10;99.90
15690;DHT22;7945;48.816;11.506;2024-01-15T12:02:41;2.10;99.90
15690;DHT22;7945;48.816;11.506;2024-01-15T12:05:08;2.10;99.80
15690;DHT22;7945;48.816;11.506;2024-01-15T12:07:37;2.10;99.90
15690;DHT22;7945;48.816;11.506;2024-01-15T12:10:09;2.10;99.90
15690;DHT22;7945;48.816;11.506;2024-01-15T12:12:51;2.10;99.90
15690;DHT22;7945;48.816;11.506;2024-01-15T12:15:21;2.00;99.90
15690;DHT22;7945;48.816;11.506;2024-01-15T12:17:48;2.00;99.90
15690;DHT22;7945;48.816;11.506;2024-01-15T12:20:15;2.00;99.90
15690;DHT22;7945;48.816;11.506;2024-01-15T12:22:42;1.90;99.90
15690;DHT22;7945;48.816;11.506;2024-01-15T12:25:10;1.90;99.90
15690;DHT22;7945;48.816;11.506;2024-01-15T12:27:37;1.90;99.90
15690;DHT22;7945;48.816;11.506;2024-01-15T12:30:05;1.90;99.90
15690;DHT22;7945;48.816;11.506;2024-01-15T12:32:33;1.90;99.90
15690;DHT22;7945;48.816;11.506;2024-01-15T12:35:00;1.90;99.90
15690;DHT22;7945;48.816;11.506;2024-01-15T12:37:29;1.90;99.90
15690;DHT22;7945;48.816;11.506;2024-01-15T12:39:56;1.90;99.90
15690;DHT22;7945;48.816;11.506;2024-01-15T12:42:28;1.80;99.90
15690;DHT22;7945;48.816;11.506;2024-01-15T12:44:55;1.80;99.90
15690;DHT22;7945;48.816;11.506;2024-01-15T12:47:22;1.80;99.90
15690;DHT22;7945;48.816;11.506;2024-01-15T12:49:51;1.80;99.90
15690;DHT22;7945;48.816;11.506;2024-01-15T12:52:20;1.80;99.90
15690;DHT22;7945;48.816;11.506;2024-01-15T12:54:47;1.90;99.90
15690;DHT22;7945;48.816;11.506;2024-01-15T12:57:14;1.90;99.90
15690;DHT22;7945;48.816;11.506;2024-01-15T12:59:42;1.90;99.90
15690;DHT22;7945;48.816;11.506;2024-01-15T13:02:09;1.90;99.90
15690;DHT22;7945;48.816;11.506;2024-01-15T13:04:37;1.90;99.90
15690;DHT22;7945;48.816;11.506;2024-01-15T13:07:04;1.90;99.90
15690;DHT22;7945;48.816;11.506;2024-01-15T13:09:31;2.00;99.90
15690;DHT22;7945;48.816;11.506;2024-01-15T13:11:58;2.00;99.90
15690;DHT22;7945;48.816;11.506;2024-01-15T13:14:24;2.00;99.90
15690;DHT22;7945;48.816;11.506;2024-01-15T13:16:53;2.00;99.90
15690;DHT22;7945;48.816;11.506;2024-01-15T13:19:20;1.90;99.90
15690;DHT22;7945;48.816;11.506;2024-01-15T13:21:47;2.00;99.90
15690;DHT22;7945;48.816;11.506;2024-01-15T13:24:15;1.90;99.90
15690;DHT22;7945;48.816;11.506;2024-01-15T13:26:42;1.80;99.90
15690;DHT22;7945;48.816;11.506;2024-01-15T13:29:09;1.80;99.90
15690;DHT22;7945;48.816;11.506;2024-01-15T13:31:36;1.80;99.90
15690;DHT22;7945;48.816;11.506;2024-01-15T13:34:05;1.70;99.90
15690;DHT22;7945;48.816;11.506;2024-01-15T13:36:32;1.70;99.90
15690;DHT22;7945;48.816;11.506;2024-01-15T13:38:59;1.60;99.90
15690;DHT22;7945;48.816;11.506;2024-01-15T13:41:26;1.50;99.90
15690;DHT22;7945;48.816;11.506;2024-01-15T13:43:55;0.90;99.90
15690;DHT22;7945;48.816;11.506;2024-01-15T13:46:24;1.40;99.90
15690;DHT22;7945;48.816;11.506;2024-01-15T13:48:52;1.40;99.90
15690;DHT22;7945;48.816;11.506;2024-01-15T13:51:21;1.30;99.90
15690;DHT22;7945;48.816;11.506;2024-01-15T13:53:48;1.30;99.90
15690;DHT22;7945;48.816;11.506;2024-01-15T13:56:15;1.20;99.90
15690;DHT22;7945;48.816;11.506;2024-01-15T13:58:42;1.20;99.90
15690;DHT22;7945;48.816;11.506;2024-01-15T14:01:09;1.20;99.90
15690;DHT22;7945;48.816;11.506;2024-01-15T14:03:36;1.20;99.90
15690;DHT22;7945;48.816;11.506;2024-01-15T14:06:03;1.10;99.90
15690;DHT22;7945;48.816;11.506;2024-01-15T14:08:35;1.10;99.90
15690;DHT22;7945;48.816;11.506;2024-01-15T14:11:02;1.20;99.90
15690;DHT22;7945;48.816;11.506;2024-01-15T14:13:31;1.10;99.90
15690;DHT22;7945;48.816;11.506;2024-01-15T14:15:58;1.10;99.90
15690;DHT22;7945;48.816;11.506;2024-01-15T14:18:25;1.20;99.90
15690;DHT22;7945;48.816;11.506;2024-01-15T14:20:52;1.20;99.90
15690;DHT22;7945;48.816;11.506;2024-01-15T14:23:19;1.20;99.90
15690;DHT22;7945;48.816;11.506;2024-01-15T14:25:47;1.20;99.90
15690;DHT22;7945;48.816;11.506;2024-01-15T14:28:14;1.20;99.90
15690;DHT22;7945;48.816;11.506;2024-01-15T14:30:41;1.20;99.90
15690;DHT22;7945;48.816;11.506;2024-01-15T14:33:08;1.10;99.90
15690;DHT22;7945;48.816;11.506;2024-01-15T14:35:35;1.10;99.90
15690;DHT22;7945;48.816;11.506;2024-01-15T14:38:01;1.10;99.90
15690;DHT22;7945;48.816;11.506;2024-01-15T14:40:28;1.10;99.90
15690;DHT22;7945;48.816;11.506;2024-01-15T14:42:56;1.10;99.90
15690;DHT22;7945;48.816;11.506;2024-01-15T14:45:23;1.10;99.90
15690;DHT22;7945;48.816;11.506;2024-01-15T14:47:52;1.10;99.90
15690;DHT22;7945;48.816;11.506;2024-01-15T14:50:19;1.00;99.90
15690;DHT22;7945;48.816;11.506;2024-01-15T14:52:46;1.00;99.90
15690;DHT22;7945;48.816;11.506;2024-01-15T14:55:13;1.00;99.90
15690;DHT22;7945;48.816;11.506;2024-01-15T14:57:39;1.00;99.90
15690;DHT22;7945;48.816;11.506;2024-01-15T15:00:08;1.10;99.90
15690;DHT22;7945;48.816;11.506;2024-01-15T15:02:35;1.00;99.90
15690;DHT22;7945;48.816;11.506;2024-01-15T15:05:03;1.00;99.90
15690;DHT22;7945;48.816;11.506;2024-01-15T15:07:30;1.00;99.90
15690;DHT22;7945;48.816;11.506;2024-01-15T15:09:56;1.00;99.90
15690;DHT22;7945;48.816;11.506;2024-01-15T15:12:23;1.00;99.90
15690;DHT22;7945;48.816;11.506;2024-01-15T15:14:50;1.00;99.90
15690;DHT22;7945;48.816;11.506;2024-01-15T15:17:18;1.10;99.90
15690;DHT22;7945;48.816;11.506;2024-01-15T15:19:45;1.10;99.90
15690;DHT22;7945;48.816;11.506;2024-01-15T15:22:11;1.20;99.90
15690;DHT22;7945;48.816;11.506;2024-01-15T15:24:38;1.40;99.90
15690;DHT22;7945;48.816;11.506;2024-01-15T15:27:05;1.40;99.90
15690;DHT22;7945;48.816;11.506;2024-01-15T15:29:32;1.30;99.90
15690;DHT22;7945;48.816;11.506;2024-01-15T15:32:00;1.20;99.90
15690;DHT22;7945;48.816;11.506;2024-01-15T15:34:28;1.20;99.90
15690;DHT22;7945;48.816;11.506;2024-01-15T15:36:55;1.20;99.90
15690;DHT22;7945;48.816;11.506;2024-01-15T15:39:22;1.20;99.90
15690;DHT22;7945;48.816;11.506;2024-01-15T15:41:49;1.10;99.90
15690;DHT22;7945;48.816;11.506;2024-01-15T15:44:16;1.10;99.90
15690;DHT22;7945;48.816;11.506;2024-01-15T15:46:43;1.20;99.90
15690;DHT22;7945;48.816;11.506;2024-01-15T15:49:10;1.10;99.90